sensor_id;sensor_type;location;lat;lon;timestamp;P1;durP1;ratioP1;P2;durP2;ratioP2
20026;SDS011;10174;42.688;23.344;2023-02-20T00:00:33;24.52;;;12.98;;
20026;SDS011;10174;42.688;23.344;2023-02-20T00:03:00;20.67;;;11.95;;
20026;SDS011;10174;42.688;23.344;2023-02-20T00:05:27;22.50;;;12.52;;
20026;SDS011;10174;42.688;23.344;2023-02-20T00:07:52;23.52;;;12.98;;
20026;SDS011;10174;42.688;23.344;2023-02-20T00:10:18;22.75;;;12.73;;
20026;SDS011;10174;42.688;23.344;2023-02-20T00:12:43;23.33;;;12.85;;
20026;SDS011;10174;42.688;23.344;2023-02-20T00:15:09;23.48;;;13.77;;
20026;SDS011;10174;42.688;23.344;2023-02-20T00:17:38;25.38;;;13.00;;
20026;SDS011;10174;42.688;23.344;2023-02-20T00:20:04;22.05;;;11.95;;
20026;SDS011;10174;42.688;23.344;2023-02-20T00:22:30;22.50;;;11.60;;
20026;SDS011;10174;42.688;23.344;2023-02-20T00:24:56;23.92;;;12.77;;
20026;SDS011;10174;42.688;23.344;2023-02-20T00:27:21;21.17;;;12.13;;
20026;SDS011;10174;42.688;23.344;2023-02-20T00:29:46;23.15;;;12.88;;
20026;SDS011;10174;42.688;23.344;2023-02-20T00:32:12;25.92;;;12.15;;
20026;SDS011;10174;42.688;23.344;2023-02-20T00:34:38;27.63;;;13.18;;
20026;SDS011;10174;42.688;23.344;2023-02-20T00:37:03;25.63;;;13.40;;
20026;SDS011;10174;42.688;23.344;2023-02-20T00:39:31;26.80;;;13.80;;
20026;SDS011;10174;42.688;23.344;2023-02-20T00:41:56;26.30;;;13.60;;
20026;SDS011;10174;42.688;23.344;2023-02-20T00:44:23;20.27;;;12.10;;
20026;SDS011;10174;42.688;23.344;2023-02-20T00:46:49;22.38;;;12.98;;
20026;SDS011;10174;42.688;23.344;2023-02-20T00:49:14;24.33;;;13.82;;
20026;SDS011;10174;42.688;23.344;2023-02-20T00:51:39;23.10;;;12.68;;
20026;SDS011;10174;42.688;23.344;2023-02-20T00:54:05;21.55;;;13.20;;
20026;SDS011;10174;42.688;23.344;2023-02-20T00:56:30;23.00;;;12.93;;
20026;SDS011;10174;42.688;23.344;2023-02-20T00:58:56;27.45;;;13.65;;
20026;SDS011;10174;42.688;23.344;2023-02-20T01:01:21;25.52;;;13.82;;
20026;SDS011;10174;42.688;23.344;2023-02-20T01:03:47;26.35;;;13.68;;
20026;SDS011;10174;42.688;23.344;2023-02-20T01:06:13;24.92;;;13.82;;
20026;SDS011;10174;42.688;23.344;2023-02-20T01:08:38;25.27;;;13.75;;
20026;SDS011;10174;42.688;23.344;2023-02-20T01:11:03;24.13;;;12.88;;
20026;SDS011;10174;42.688;23.344;2023-02-20T01:13:29;25.17;;;14.27;;
20026;SDS011;10174;42.688;23.344;2023-02-20T01:15:54;25.35;;;13.80;;
20026;SDS011;10174;42.688;23.344;2023-02-20T01:18:20;25.30;;;13.63;;
20026;SDS011;10174;42.688;23.344;2023-02-20T01:20:45;25.88;;;14.13;;
20026;SDS011;10174;42.688;23.344;2023-02-20T01:23:11;25.88;;;14.02;;
20026;SDS011;10174;42.688;23.344;2023-02-20T01:25:36;28.70;;;14.65;;
20026;SDS011;10174;42.688;23.344;2023-02-20T01:28:02;26.60;;;14.10;;
20026;SDS011;10174;42.688;23.344;2023-02-20T01:30:27;27.27;;;13.95;;
20026;SDS011;10174;42.688;23.344;2023-02-20T01:32:53;31.67;;;14.80;;
20026;SDS011;10174;42.688;23.344;2023-02-20T01:35:18;28.38;;;15.40;;
20026;SDS011;10174;42.688;23.344;2023-02-20T01:37:43;23.52;;;13.98;;
20026;SDS011;10174;42.688;23.344;2023-02-20T01:40:13;34.50;;;15.13;;
20026;SDS011;10174;42.688;23.344;2023-02-20T01:42:40;25.52;;;14.88;;
20026;SDS011;10174;42.688;23.344;2023-02-20T01:47:52;28.45;;;15.68;;
20026;SDS011;10174;42.688;23.344;2023-02-20T01:50:20;27.33;;;15.23;;
20026;SDS011;10174;42.688;23.344;2023-02-20T01:52:52;27.88;;;14.27;;
20026;SDS011;10174;42.688;23.344;2023-02-20T01:55:22;29.60;;;15.85;;
20026;SDS011;10174;42.688;23.344;2023-02-20T01:57:53;27.73;;;14.77;;
20026;SDS011;10174;42.688;23.344;2023-02-20T02:00:24;34.47;;;16.52;;
20026;SDS011;10174;42.688;23.344;2023-02-20T02:02:53;28.40;;;15.02;;
20026;SDS011;10174;42.688;23.344;2023-02-20T02:05:21;28.23;;;16.17;;
20026;SDS011;10174;42.688;23.344;2023-02-20T02:07:47;25.20;;;14.00;;
20026;SDS011;10174;42.688;23.344;2023-02-20T02:10:15;28.05;;;14.13;;
20026;SDS011;10174;42.688;23.344;2023-02-20T02:12:44;36.95;;;13.43;;
20026;SDS011;10174;42.688;23.344;2023-02-20T02:15:16;26.73;;;14.27;;
20026;SDS011;10174;42.688;23.344;2023-02-20T02:37:27;9.73;;;6.07;;
20026;SDS011;10174;42.688;23.344;2023-02-20T02:40:02;15.02;;;6.10;;
20026;SDS011;10174;42.688;23.344;2023-02-20T02:42:40;8.65;;;5.45;;
20026;SDS011;10174;42.688;23.344;2023-02-20T02:45:15;9.93;;;5.13;;
20026;SDS011;10174;42.688;23.344;2023-02-20T02:48:25;8.23;;;5.00;;
20026;SDS011;10174;42.688;23.344;2023-02-20T02:50:36;8.27;;;4.80;;
20026;SDS011;10174;42.688;23.344;2023-02-20T02:53:04;9.30;;;5.15;;
20026;SDS011;10174;42.688;23.344;2023-02-20T02:55:32;9.27;;;5.35;;
20026;SDS011;10174;42.688;23.344;2023-02-20T02:58:00;9.35;;;4.53;;
20026;SDS011;10174;42.688;23.344;2023-02-20T03:00:32;10.32;;;4.45;;
20026;SDS011;10174;42.688;23.344;2023-02-20T03:08:36;8.60;;;4.72;;
20026;SDS011;10174;42.688;23.344;2023-02-20T03:11:22;7.78;;;4.50;;
20026;SDS011;10174;42.688;23.344;2023-02-20T03:13:52;8.25;;;5.43;;
20026;SDS011;10174;42.688;23.344;2023-02-20T03:22:14;8.60;;;5.43;;
20026;SDS011;10174;42.688;23.344;2023-02-20T03:25:05;7.38;;;4.93;;
20026;SDS011;10174;42.688;23.344;2023-02-20T03:27:41;7.78;;;4.82;;
20026;SDS011;10174;42.688;23.344;2023-02-20T03:30:32;8.50;;;5.07;;
20026;SDS011;10174;42.688;23.344;2023-02-20T03:33:12;7.25;;;4.53;;
20026;SDS011;10174;42.688;23.344;2023-02-20T03:36:03;7.38;;;4.50;;
20026;SDS011;10174;42.688;23.344;2023-02-20T03:38:51;7.05;;;4.25;;
20026;SDS011;10174;42.688;23.344;2023-02-20T03:41:59;7.85;;;3.90;;
20026;SDS011;10174;42.688;23.344;2023-02-20T03:44:45;6.65;;;4.05;;
20026;SDS011;10174;42.688;23.344;2023-02-20T03:47:12;9.75;;;4.45;;
20026;SDS011;10174;42.688;23.344;2023-02-20T03:49:41;8.23;;;4.05;;
20026;SDS011;10174;42.688;23.344;2023-02-20T03:52:09;5.88;;;4.00;;
20026;SDS011;10174;42.688;23.344;2023-02-20T03:54:35;6.75;;;3.90;;
20026;SDS011;10174;42.688;23.344;2023-02-20T03:57:02;6.80;;;4.32;;
20026;SDS011;10174;42.688;23.344;2023-02-20T03:59:43;8.82;;;4.25;;
20026;SDS011;10174;42.688;23.344;2023-02-20T04:03:00;5.97;;;3.80;;
20026;SDS011;10174;42.688;23.344;2023-02-20T04:05:09;8.98;;;4.20;;
20026;SDS011;10174;42.688;23.344;2023-02-20T04:08:26;7.60;;;4.13;;
20026;SDS011;10174;42.688;23.344;2023-02-20T04:13:07;5.97;;;3.80;;
20026;SDS011;10174;42.688;23.344;2023-02-20T04:15:33;8.48;;;3.72;;
20026;SDS011;10174;42.688;23.344;2023-02-20T04:18:04;6.65;;;3.92;;
20026;SDS011;10174;42.688;23.344;2023-02-20T04:20:34;5.28;;;3.67;;
20026;SDS011;10174;42.688;23.344;2023-02-20T04:23:12;9.02;;;3.80;;
20026;SDS011;10174;42.688;23.344;2023-02-20T04:28:08;7.45;;;4.43;;
20026;SDS011;10174;42.688;23.344;2023-02-20T04:30:35;5.18;;;3.92;;
20026;SDS011;10174;42.688;23.344;2023-02-20T04:33:01;7.95;;;4.18;;
20026;SDS011;10174;42.688;23.344;2023-02-20T04:35:26;10.77;;;4.10;;
20026;SDS011;10174;42.688;23.344;2023-02-20T04:37:52;8.55;;;4.18;;
20026;SDS011;10174;42.688;23.344;2023-02-20T04:40:18;7.97;;;4.47;;
20026;SDS011;10174;42.688;23.344;2023-02-20T04:42:45;6.47;;;4.38;;
20026;SDS011;10174;42.688;23.344;2023-02-20T04:45:11;7.57;;;4.05;;
20026;SDS011;10174;42.688;23.344;2023-02-20T04:47:36;7.53;;;4.40;;
20026;SDS011;10174;42.688;23.344;2023-02-20T04:50:02;6.65;;;3.85;;
20026;SDS011;10174;42.688;23.344;2023-02-20T04:52:28;8.50;;;4.20;;
20026;SDS011;10174;42.688;23.344;2023-02-20T04:54:53;6.03;;;3.63;;
20026;SDS011;10174;42.688;23.344;2023-02-20T04:57:18;8.40;;;3.63;;
20026;SDS011;10174;42.688;23.344;2023-02-20T04:59:44;7.68;;;3.50;;
20026;SDS011;10174;42.688;23.344;2023-02-20T05:02:09;5.88;;;3.30;;
20026;SDS011;10174;42.688;23.344;2023-02-20T05:04:35;5.97;;;3.47;;
20026;SDS011;10174;42.688;23.344;2023-02-20T05:07:00;10.13;;;3.95;;
20026;SDS011;10174;42.688;23.344;2023-02-20T05:09:26;10.38;;;3.78;;
20026;SDS011;10174;42.688;23.344;2023-02-20T05:11:52;5.90;;;3.05;;
20026;SDS011;10174;42.688;23.344;2023-02-20T05:14:18;5.75;;;3.20;;
20026;SDS011;10174;42.688;23.344;2023-02-20T05:16:44;9.50;;;3.00;;
20026;SDS011;10174;42.688;23.344;2023-02-20T05:19:10;5.88;;;3.17;;
20026;SDS011;10174;42.688;23.344;2023-02-20T05:21:36;6.95;;;3.30;;
20026;SDS011;10174;42.688;23.344;2023-02-20T05:24:21;6.15;;;3.03;;
20026;SDS011;10174;42.688;23.344;2023-02-20T05:26:48;3.80;;;3.00;;
20026;SDS011;10174;42.688;23.344;2023-02-20T05:29:13;7.80;;;3.30;;
20026;SDS011;10174;42.688;23.344;2023-02-20T05:31:39;11.25;;;3.95;;
20026;SDS011;10174;42.688;23.344;2023-02-20T05:34:05;10.02;;;4.18;;
20026;SDS011;10174;42.688;23.344;2023-02-20T05:36:30;9.85;;;4.50;;
20026;SDS011;10174;42.688;23.344;2023-02-20T05:38:56;6.40;;;4.43;;
20026;SDS011;10174;42.688;23.344;2023-02-20T05:41:21;11.27;;;4.22;;
20026;SDS011;10174;42.688;23.344;2023-02-20T05:43:47;9.23;;;4.65;;
20026;SDS011;10174;42.688;23.344;2023-02-20T05:46:12;14.02;;;6.15;;
20026;SDS011;10174;42.688;23.344;2023-02-20T05:48:38;11.13;;;5.75;;
20026;SDS011;10174;42.688;23.344;2023-02-20T05:51:04;8.68;;;5.60;;
20026;SDS011;10174;42.688;23.344;2023-02-20T05:53:30;10.55;;;6.30;;
20026;SDS011;10174;42.688;23.344;2023-02-20T05:55:56;11.27;;;6.65;;
20026;SDS011;10174;42.688;23.344;2023-02-20T05:58:22;14.07;;;8.13;;
20026;SDS011;10174;42.688;23.344;2023-02-20T06:00:48;15.68;;;7.70;;
20026;SDS011;10174;42.688;23.344;2023-02-20T06:03:13;14.48;;;7.40;;
20026;SDS011;10174;42.688;23.344;2023-02-20T06:05:40;11.52;;;7.05;;
20026;SDS011;10174;42.688;23.344;2023-02-20T06:08:06;9.95;;;7.20;;
20026;SDS011;10174;42.688;23.344;2023-02-20T06:10:31;10.48;;;6.82;;
20026;SDS011;10174;42.688;23.344;2023-02-20T06:12:57;14.02;;;6.90;;
20026;SDS011;10174;42.688;23.344;2023-02-20T06:15:23;14.15;;;7.18;;
20026;SDS011;10174;42.688;23.344;2023-02-20T06:17:48;8.57;;;5.80;;
20026;SDS011;10174;42.688;23.344;2023-02-20T06:20:13;10.77;;;4.72;;
20026;SDS011;10174;42.688;23.344;2023-02-20T06:22:39;10.43;;;4.88;;
20026;SDS011;10174;42.688;23.344;2023-02-20T06:25:05;10.75;;;5.32;;
20026;SDS011;10174;42.688;23.344;2023-02-20T06:27:30;12.35;;;4.97;;
20026;SDS011;10174;42.688;23.344;2023-02-20T06:29:56;12.10;;;5.00;;
20026;SDS011;10174;42.688;23.344;2023-02-20T06:32:21;10.73;;;5.30;;
20026;SDS011;10174;42.688;23.344;2023-02-20T06:34:47;12.57;;;5.30;;
20026;SDS011;10174;42.688;23.344;2023-02-20T06:37:12;8.85;;;5.22;;
20026;SDS011;10174;42.688;23.344;2023-02-20T06:39:38;12.60;;;5.55;;
20026;SDS011;10174;42.688;23.344;2023-02-20T06:42:04;13.35;;;5.82;;
20026;SDS011;10174;42.688;23.344;2023-02-20T06:44:30;10.07;;;5.68;;
20026;SDS011;10174;42.688;23.344;2023-02-20T06:46:57;13.35;;;5.40;;
20026;SDS011;10174;42.688;23.344;2023-02-20T06:49:23;13.77;;;5.30;;
20026;SDS011;10174;42.688;23.344;2023-02-20T06:51:51;12.68;;;5.03;;
20026;SDS011;10174;42.688;23.344;2023-02-20T06:54:18;7.75;;;5.07;;
20026;SDS011;10174;42.688;23.344;2023-02-20T06:56:45;14.50;;;8.25;;
20026;SDS011;10174;42.688;23.344;2023-02-20T06:59:12;13.65;;;5.72;;
20026;SDS011;10174;42.688;23.344;2023-02-20T07:01:39;11.75;;;5.75;;
20026;SDS011;10174;42.688;23.344;2023-02-20T07:04:06;9.98;;;5.85;;
20026;SDS011;10174;42.688;23.344;2023-02-20T07:06:37;12.98;;;5.35;;
20026;SDS011;10174;42.688;23.344;2023-02-20T07:09:03;13.43;;;6.07;;
20026;SDS011;10174;42.688;23.344;2023-02-20T07:11:28;14.35;;;5.95;;
20026;SDS011;10174;42.688;23.344;2023-02-20T07:13:53;10.45;;;5.80;;
20026;SDS011;10174;42.688;23.344;2023-02-20T07:16:19;9.73;;;5.32;;
20026;SDS011;10174;42.688;23.344;2023-02-20T07:18:44;7.38;;;4.90;;
20026;SDS011;10174;42.688;23.344;2023-02-20T07:21:10;6.93;;;5.00;;
20026;SDS011;10174;42.688;23.344;2023-02-20T07:23:35;12.05;;;4.60;;
20026;SDS011;10174;42.688;23.344;2023-02-20T07:26:01;9.68;;;5.03;;
20026;SDS011;10174;42.688;23.344;2023-02-20T07:28:26;15.43;;;5.15;;
20026;SDS011;10174;42.688;23.344;2023-02-20T07:30:51;10.55;;;4.45;;
20026;SDS011;10174;42.688;23.344;2023-02-20T07:33:17;9.80;;;4.65;;
20026;SDS011;10174;42.688;23.344;2023-02-20T07:35:43;9.48;;;3.55;;
20026;SDS011;10174;42.688;23.344;2023-02-20T07:38:09;12.98;;;3.90;;
20026;SDS011;10174;42.688;23.344;2023-02-20T07:40:34;8.52;;;3.40;;
20026;SDS011;10174;42.688;23.344;2023-02-20T07:43:00;12.98;;;3.53;;
20026;SDS011;10174;42.688;23.344;2023-02-20T07:45:25;6.57;;;3.50;;
20026;SDS011;10174;42.688;23.344;2023-02-20T07:47:51;7.55;;;3.15;;
20026;SDS011;10174;42.688;23.344;2023-02-20T07:50:16;4.57;;;3.17;;
20026;SDS011;10174;42.688;23.344;2023-02-20T07:52:43;17.08;;;4.35;;
20026;SDS011;10174;42.688;23.344;2023-02-20T07:55:12;5.70;;;2.80;;
20026;SDS011;10174;42.688;23.344;2023-02-20T07:57:38;10.63;;;3.15;;
20026;SDS011;10174;42.688;23.344;2023-02-20T08:00:04;5.63;;;2.63;;
20026;SDS011;10174;42.688;23.344;2023-02-20T08:02:30;8.70;;;3.20;;
20026;SDS011;10174;42.688;23.344;2023-02-20T08:04:56;7.75;;;2.40;;
20026;SDS011;10174;42.688;23.344;2023-02-20T08:07:21;3.15;;;1.92;;
20026;SDS011;10174;42.688;23.344;2023-02-20T08:09:47;10.30;;;2.17;;
20026;SDS011;10174;42.688;23.344;2023-02-20T08:12:12;6.63;;;2.30;;
20026;SDS011;10174;42.688;23.344;2023-02-20T08:14:38;3.67;;;2.38;;
20026;SDS011;10174;42.688;23.344;2023-02-20T08:17:03;4.35;;;2.88;;
20026;SDS011;10174;42.688;23.344;2023-02-20T08:19:28;6.88;;;1.80;;
20026;SDS011;10174;42.688;23.344;2023-02-20T08:21:54;3.17;;;1.90;;
20026;SDS011;10174;42.688;23.344;2023-02-20T08:24:19;10.43;;;2.30;;
20026;SDS011;10174;42.688;23.344;2023-02-20T08:26:45;3.97;;;1.70;;
20026;SDS011;10174;42.688;23.344;2023-02-20T08:29:12;7.78;;;1.50;;
20026;SDS011;10174;42.688;23.344;2023-02-20T08:31:38;12.13;;;2.03;;
20026;SDS011;10174;42.688;23.344;2023-02-20T08:34:04;5.22;;;1.65;;
20026;SDS011;10174;42.688;23.344;2023-02-20T08:36:29;6.25;;;1.60;;
20026;SDS011;10174;42.688;23.344;2023-02-20T08:38:55;4.70;;;1.25;;
20026;SDS011;10174;42.688;23.344;2023-02-20T08:41:21;8.52;;;2.40;;
20026;SDS011;10174;42.688;23.344;2023-02-20T08:43:47;3.03;;;1.98;;
20026;SDS011;10174;42.688;23.344;2023-02-20T08:46:12;9.50;;;1.40;;
20026;SDS011;10174;42.688;23.344;2023-02-20T08:48:38;6.65;;;1.52;;
20026;SDS011;10174;42.688;23.344;2023-02-20T08:51:04;6.18;;;1.42;;
20026;SDS011;10174;42.688;23.344;2023-02-20T08:53:31;5.28;;;1.10;;
20026;SDS011;10174;42.688;23.344;2023-02-20T08:55:57;2.80;;;1.10;;
20026;SDS011;10174;42.688;23.344;2023-02-20T08:58:22;8.20;;;1.63;;
20026;SDS011;10174;42.688;23.344;2023-02-20T09:00:49;5.72;;;1.35;;
20026;SDS011;10174;42.688;23.344;2023-02-20T09:03:14;3.72;;;1.27;;
20026;SDS011;10174;42.688;23.344;2023-02-20T09:05:40;7.93;;;1.30;;
20026;SDS011;10174;42.688;23.344;2023-02-20T09:08:07;6.22;;;1.48;;
20026;SDS011;10174;42.688;23.344;2023-02-20T09:10:32;2.10;;;1.13;;
20026;SDS011;10174;42.688;23.344;2023-02-20T09:12:58;5.57;;;1.17;;
20026;SDS011;10174;42.688;23.344;2023-02-20T09:15:24;8.85;;;1.55;;
20026;SDS011;10174;42.688;23.344;2023-02-20T09:17:50;6.55;;;1.50;;
20026;SDS011;10174;42.688;23.344;2023-02-20T09:20:17;6.75;;;1.50;;
20026;SDS011;10174;42.688;23.344;2023-02-20T09:22:44;6.68;;;1.40;;
20026;SDS011;10174;42.688;23.344;2023-02-20T09:25:11;13.02;;;1.30;;
20026;SDS011;10174;42.688;23.344;2023-02-20T09:27:37;5.22;;;1.25;;
20026;SDS011;10174;42.688;23.344;2023-02-20T09:30:03;2.55;;;1.15;;
20026;SDS011;10174;42.688;23.344;2023-02-20T09:32:28;8.27;;;1.42;;
20026;SDS011;10174;42.688;23.344;2023-02-20T09:34:54;3.75;;;1.90;;
20026;SDS011;10174;42.688;23.344;2023-02-20T09:37:19;5.47;;;2.00;;
20026;SDS011;10174;42.688;23.344;2023-02-20T09:39:45;10.30;;;1.30;;
20026;SDS011;10174;42.688;23.344;2023-02-20T09:42:26;2.85;;;1.48;;
20026;SDS011;10174;42.688;23.344;2023-02-20T09:45:07;9.52;;;1.58;;
20026;SDS011;10174;42.688;23.344;2023-02-20T09:50:48;11.70;;;1.73;;
20026;SDS011;10174;42.688;23.344;2023-02-20T09:55:56;3.25;;;1.00;;
20026;SDS011;10174;42.688;23.344;2023-02-20T10:01:07;5.60;;;1.60;;
20026;SDS011;10174;42.688;23.344;2023-02-20T10:03:36;2.45;;;1.02;;
20026;SDS011;10174;42.688;23.344;2023-02-20T10:06:16;4.18;;;1.30;;
20026;SDS011;10174;42.688;23.344;2023-02-20T10:08:46;6.65;;;1.48;;
20026;SDS011;10174;42.688;23.344;2023-02-20T10:11:25;8.50;;;1.27;;
20026;SDS011;10174;42.688;23.344;2023-02-20T10:17:20;2.20;;;1.40;;
20026;SDS011;10174;42.688;23.344;2023-02-20T10:26:21;7.28;;;1.50;;
20026;SDS011;10174;42.688;23.344;2023-02-20T10:28:21;4.88;;;1.67;;
20026;SDS011;10174;42.688;23.344;2023-02-20T10:33:37;2.47;;;1.13;;
20026;SDS011;10174;42.688;23.344;2023-02-20T10:36:10;4.78;;;1.42;;
20026;SDS011;10174;42.688;23.344;2023-02-20T10:39:10;8.05;;;1.40;;
20026;SDS011;10174;42.688;23.344;2023-02-20T10:44:35;9.25;;;1.20;;
20026;SDS011;10174;42.688;23.344;2023-02-20T10:52:08;3.78;;;1.45;;
20026;SDS011;10174;42.688;23.344;2023-02-20T10:54:37;1.20;;;1.10;;
20026;SDS011;10174;42.688;23.344;2023-02-20T10:59:57;3.85;;;2.20;;
20026;SDS011;10174;42.688;23.344;2023-02-20T11:05:22;2.30;;;1.20;;
20026;SDS011;10174;42.688;23.344;2023-02-20T11:07:51;3.42;;;1.35;;
20026;SDS011;10174;42.688;23.344;2023-02-20T11:10:17;2.97;;;1.30;;
20026;SDS011;10174;42.688;23.344;2023-02-20T11:12:50;5.45;;;1.50;;
20026;SDS011;10174;42.688;23.344;2023-02-20T11:15:18;3.30;;;1.52;;
20026;SDS011;10174;42.688;23.344;2023-02-20T11:17:47;2.17;;;1.20;;
20026;SDS011;10174;42.688;23.344;2023-02-20T11:22:56;3.40;;;1.23;;
20026;SDS011;10174;42.688;23.344;2023-02-20T11:25:26;4.43;;;1.60;;
20026;SDS011;10174;42.688;23.344;2023-02-20T11:27:53;7.90;;;1.50;;
20026;SDS011;10174;42.688;23.344;2023-02-20T11:30:31;6.22;;;1.33;;
20026;SDS011;10174;42.688;23.344;2023-02-20T11:33:00;1.98;;;1.05;;
20026;SDS011;10174;42.688;23.344;2023-02-20T11:35:38;4.32;;;1.10;;
20026;SDS011;10174;42.688;23.344;2023-02-20T11:41:02;3.25;;;1.40;;
20026;SDS011;10174;42.688;23.344;2023-02-20T11:43:36;4.32;;;1.38;;
20026;SDS011;10174;42.688;23.344;2023-02-20T11:46:09;2.25;;;1.20;;
20026;SDS011;10174;42.688;23.344;2023-02-20T11:54:11;2.20;;;1.20;;
20026;SDS011;10174;42.688;23.344;2023-02-20T12:01:51;4.43;;;1.20;;
20026;SDS011;10174;42.688;23.344;2023-02-20T12:04:18;3.70;;;1.45;;
20026;SDS011;10174;42.688;23.344;2023-02-20T12:06:46;1.45;;;0.80;;
20026;SDS011;10174;42.688;23.344;2023-02-20T12:09:13;1.80;;;0.90;;
20026;SDS011;10174;42.688;23.344;2023-02-20T12:11:43;4.18;;;0.90;;
20026;SDS011;10174;42.688;23.344;2023-02-20T12:14:12;3.10;;;1.45;;
20026;SDS011;10174;42.688;23.344;2023-02-20T12:22:29;1.38;;;0.95;;
20026;SDS011;10174;42.688;23.344;2023-02-20T12:41:52;6.45;;;1.08;;
20026;SDS011;10174;42.688;23.344;2023-02-20T12:47:15;3.67;;;1.20;;
20026;SDS011;10174;42.688;23.344;2023-02-20T12:55:41;8.65;;;1.30;;
20026;SDS011;10174;42.688;23.344;2023-02-20T12:58:15;3.15;;;0.77;;
20026;SDS011;10174;42.688;23.344;2023-02-20T13:03:17;1.48;;;0.80;;
20026;SDS011;10174;42.688;23.344;2023-02-20T13:05:49;1.85;;;0.90;;
20026;SDS011;10174;42.688;23.344;2023-02-20T13:08:20;0.90;;;0.68;;
20026;SDS011;10174;42.688;23.344;2023-02-20T13:11:00;4.65;;;0.82;;
20026;SDS011;10174;42.688;23.344;2023-02-20T13:13:36;1.75;;;1.10;;
20026;SDS011;10174;42.688;23.344;2023-02-20T13:16:07;5.40;;;0.90;;
20026;SDS011;10174;42.688;23.344;2023-02-20T13:21:30;2.38;;;0.93;;
20026;SDS011;10174;42.688;23.344;2023-02-20T13:29:31;2.03;;;1.40;;
20026;SDS011;10174;42.688;23.344;2023-02-20T13:34:42;3.45;;;1.13;;
20026;SDS011;10174;42.688;23.344;2023-02-20T13:40:10;1.58;;;0.85;;
20026;SDS011;10174;42.688;23.344;2023-02-20T13:46:09;3.10;;;1.20;;
20026;SDS011;10174;42.688;23.344;2023-02-20T13:48:42;2.35;;;1.10;;
20026;SDS011;10174;42.688;23.344;2023-02-20T13:56:22;1.92;;;1.00;;
20026;SDS011;10174;42.688;23.344;2023-02-20T13:58:53;2.50;;;1.40;;
20026;SDS011;10174;42.688;23.344;2023-02-20T14:01:21;1.60;;;1.15;;
20026;SDS011;10174;42.688;23.344;2023-02-20T14:04:08;4.00;;;1.70;;
20026;SDS011;10174;42.688;23.344;2023-02-20T14:06:32;2.17;;;1.17;;
20026;SDS011;10174;42.688;23.344;2023-02-20T14:09:08;5.25;;;1.23;;
20026;SDS011;10174;42.688;23.344;2023-02-20T14:11:35;4.05;;;1.10;;
20026;SDS011;10174;42.688;23.344;2023-02-20T14:14:05;5.72;;;0.85;;
20026;SDS011;10174;42.688;23.344;2023-02-20T14:16:35;4.82;;;1.23;;
20026;SDS011;10174;42.688;23.344;2023-02-20T14:19:13;4.32;;;1.33;;
20026;SDS011;10174;42.688;23.344;2023-02-20T14:21:44;2.55;;;1.20;;
20026;SDS011;10174;42.688;23.344;2023-02-20T14:24:12;2.70;;;1.33;;
20026;SDS011;10174;42.688;23.344;2023-02-20T14:26:43;2.47;;;1.55;;
20026;SDS011;10174;42.688;23.344;2023-02-20T14:31:53;1.15;;;0.98;;
20026;SDS011;10174;42.688;23.344;2023-02-20T14:34:31;3.28;;;1.00;;
20026;SDS011;10174;42.688;23.344;2023-02-20T14:37:09;3.22;;;0.90;;
20026;SDS011;10174;42.688;23.344;2023-02-20T14:42:32;3.05;;;1.00;;
20026;SDS011;10174;42.688;23.344;2023-02-20T14:45:02;1.98;;;1.00;;
20026;SDS011;10174;42.688;23.344;2023-02-20T14:47:30;4.53;;;1.10;;
20026;SDS011;10174;42.688;23.344;2023-02-20T14:52:42;1.75;;;1.17;;
20026;SDS011;10174;42.688;23.344;2023-02-20T14:55:13;5.20;;;1.65;;
20026;SDS011;10174;42.688;23.344;2023-02-20T14:57:40;4.47;;;1.45;;
20026;SDS011;10174;42.688;23.344;2023-02-20T15:00:07;1.92;;;0.93;;
20026;SDS011;10174;42.688;23.344;2023-02-20T15:02:48;2.20;;;1.30;;
20026;SDS011;10174;42.688;23.344;2023-02-20T15:05:26;5.03;;;1.48;;
20026;SDS011;10174;42.688;23.344;2023-02-20T15:08:09;4.57;;;1.20;;
20026;SDS011;10174;42.688;23.344;2023-02-20T15:10:38;5.97;;;1.17;;
20026;SDS011;10174;42.688;23.344;2023-02-20T15:13:09;3.78;;;1.10;;
20026;SDS011;10174;42.688;23.344;2023-02-20T15:15:37;2.10;;;1.33;;
20026;SDS011;10174;42.688;23.344;2023-02-20T15:18:06;3.22;;;1.30;;
20026;SDS011;10174;42.688;23.344;2023-02-20T15:20:45;2.25;;;1.30;;
20026;SDS011;10174;42.688;23.344;2023-02-20T15:23:29;2.50;;;1.42;;
20026;SDS011;10174;42.688;23.344;2023-02-20T15:25:57;3.10;;;1.48;;
20026;SDS011;10174;42.688;23.344;2023-02-20T15:28:25;4.70;;;1.50;;
20026;SDS011;10174;42.688;23.344;2023-02-20T15:33:31;5.70;;;1.58;;
20026;SDS011;10174;42.688;23.344;2023-02-20T15:35:58;4.50;;;1.63;;
20026;SDS011;10174;42.688;23.344;2023-02-20T15:38:28;3.42;;;1.13;;
20026;SDS011;10174;42.688;23.344;2023-02-20T15:40:59;4.15;;;1.27;;
20026;SDS011;10174;42.688;23.344;2023-02-20T15:43:26;6.25;;;1.85;;
20026;SDS011;10174;42.688;23.344;2023-02-20T15:45:51;1.83;;;1.30;;
20026;SDS011;10174;42.688;23.344;2023-02-20T15:48:17;5.47;;;1.48;;
20026;SDS011;10174;42.688;23.344;2023-02-20T15:50:43;4.18;;;1.45;;
20026;SDS011;10174;42.688;23.344;2023-02-20T15:53:27;2.90;;;1.60;;
20026;SDS011;10174;42.688;23.344;2023-02-20T15:55:56;4.25;;;1.40;;
20026;SDS011;10174;42.688;23.344;2023-02-20T15:58:33;3.92;;;1.50;;
20026;SDS011;10174;42.688;23.344;2023-02-20T16:01:03;2.92;;;1.58;;
20026;SDS011;10174;42.688;23.344;2023-02-20T16:03:30;4.10;;;1.88;;
20026;SDS011;10174;42.688;23.344;2023-02-20T16:05:56;4.50;;;1.38;;
20026;SDS011;10174;42.688;23.344;2023-02-20T16:08:23;5.25;;;1.70;;
20026;SDS011;10174;42.688;23.344;2023-02-20T16:10:49;3.85;;;1.83;;
20026;SDS011;10174;42.688;23.344;2023-02-20T16:13:29;3.15;;;1.60;;
20026;SDS011;10174;42.688;23.344;2023-02-20T16:15:57;3.88;;;1.80;;
20026;SDS011;10174;42.688;23.344;2023-02-20T16:18:23;3.55;;;1.90;;
20026;SDS011;10174;42.688;23.344;2023-02-20T16:20:49;4.22;;;1.73;;
20026;SDS011;10174;42.688;23.344;2023-02-20T16:23:15;6.47;;;2.70;;
20026;SDS011;10174;42.688;23.344;2023-02-20T16:25:41;6.82;;;2.20;;
20026;SDS011;10174;42.688;23.344;2023-02-20T16:28:07;5.60;;;2.13;;
20026;SDS011;10174;42.688;23.344;2023-02-20T16:30:34;10.25;;;2.17;;
20026;SDS011;10174;42.688;23.344;2023-02-20T16:33:08;5.28;;;2.45;;
20026;SDS011;10174;42.688;23.344;2023-02-20T16:35:43;5.63;;;2.05;;
20026;SDS011;10174;42.688;23.344;2023-02-20T16:38:10;3.65;;;2.10;;
20026;SDS011;10174;42.688;23.344;2023-02-20T16:40:36;4.70;;;2.47;;
20026;SDS011;10174;42.688;23.344;2023-02-20T16:43:02;2.92;;;1.90;;
20026;SDS011;10174;42.688;23.344;2023-02-20T16:45:28;5.88;;;2.55;;
20026;SDS011;10174;42.688;23.344;2023-02-20T16:47:54;8.07;;;3.40;;
20026;SDS011;10174;42.688;23.344;2023-02-20T16:50:21;6.47;;;3.22;;
20026;SDS011;10174;42.688;23.344;2023-02-20T16:52:50;11.93;;;4.20;;
20026;SDS011;10174;42.688;23.344;2023-02-20T16:55:30;8.73;;;3.58;;
20026;SDS011;10174;42.688;23.344;2023-02-20T16:57:56;10.88;;;3.70;;
20026;SDS011;10174;42.688;23.344;2023-02-20T17:00:25;9.05;;;3.58;;
20026;SDS011;10174;42.688;23.344;2023-02-20T17:02:55;98.45;;;38.20;;
20026;SDS011;10174;42.688;23.344;2023-02-20T17:05:22;7.70;;;3.92;;
20026;SDS011;10174;42.688;23.344;2023-02-20T17:07:49;11.82;;;4.28;;
20026;SDS011;10174;42.688;23.344;2023-02-20T17:10:15;7.85;;;3.83;;
20026;SDS011;10174;42.688;23.344;2023-02-20T17:12:41;6.72;;;3.80;;
20026;SDS011;10174;42.688;23.344;2023-02-20T17:15:06;7.00;;;3.17;;